createdAt,value
2022-12-25T00:01:18.945Z,5.96
2022-12-25T00:07:08.785Z,6.06
2022-12-25T00:09:38.082Z,5.81
2022-12-25T00:12:19.509Z,5.89
2022-12-25T00:14:50.988Z,5.74
2022-12-25T00:17:19.033Z,5.96
2022-12-25T00:19:46.552Z,5.92
2022-12-25T00:22:15.452Z,5.72
2022-12-25T00:24:42.768Z,5.76
2022-12-25T00:27:10.414Z,5.74
2022-12-25T00:29:37.861Z,5.82
2022-12-25T00:32:08.568Z,5.84
2022-12-25T00:34:36.883Z,5.88
2022-12-25T00:37:04.409Z,5.63
2022-12-25T00:39:32.176Z,5.66
2022-12-25T00:42:18.776Z,5.79
2022-12-25T00:44:46.901Z,5.63
2022-12-25T00:47:14.493Z,5.83
2022-12-25T00:49:41.842Z,5.98
2022-12-25T00:52:09.378Z,5.77
2022-12-25T00:54:37.391Z,5.41
2022-12-25T00:57:04.836Z,5.55
2022-12-25T00:59:33.534Z,5.73
2022-12-25T01:02:19.849Z,5.46
2022-12-25T01:04:47.758Z,5.71
2022-12-25T01:07:17.058Z,5.83
2022-12-25T01:10:03.721Z,5.69
2022-12-25T01:12:31.926Z,5.82
2022-12-25T01:14:59.310Z,5.86
2022-12-25T01:17:26.734Z,5.76
2022-12-25T01:19:54.211Z,5.83
2022-12-25T01:22:21.660Z,5.77
2022-12-25T01:24:49.114Z,5.98
2022-12-25T01:27:16.916Z,5.83
2022-12-25T01:29:45.386Z,5.77
2022-12-25T01:32:13.009Z,5.82
2022-12-25T01:34:40.724Z,5.73
2022-12-25T01:37:08.284Z,5.54
2022-12-25T01:39:35.825Z,5.51
2022-12-25T01:42:03.311Z,5.58
2022-12-25T01:44:37.129Z,5.49
2022-12-25T01:47:04.843Z,5.38
2022-12-25T01:49:35.491Z,5.45
2022-12-25T01:52:10.845Z,5.50
2022-12-25T01:54:43.083Z,5.41
2022-12-25T01:57:12.260Z,5.59
2022-12-25T01:59:39.711Z,5.59
2022-12-25T02:02:07.223Z,5.60
2022-12-25T02:04:39.031Z,5.65
2022-12-25T02:07:17.292Z,5.84
2022-12-25T02:09:45.020Z,6.00
2022-12-25T02:12:22.945Z,5.64
2022-12-25T02:14:50.878Z,5.82
2022-12-25T02:17:21.051Z,5.97
2022-12-25T02:20:03.463Z,5.62
2022-12-25T02:22:36.402Z,5.78
2022-12-25T02:25:15.595Z,5.91
2022-12-25T02:27:43.202Z,6.03
2022-12-25T02:30:10.662Z,5.75
2022-12-25T02:32:46.262Z,5.75
2022-12-25T02:35:24.320Z,5.75
2022-12-25T02:37:51.758Z,5.35
2022-12-25T02:40:20.817Z,5.64
2022-12-25T02:43:26.540Z,5.54
2022-12-25T02:46:16.680Z,5.63
2022-12-25T02:49:03.953Z,5.54
2022-12-25T02:51:51.539Z,5.52
2022-12-25T02:54:39.292Z,5.67
2022-12-25T02:57:26.773Z,5.58
2022-12-25T03:00:12.890Z,5.40
2022-12-25T03:02:59.349Z,5.64
2022-12-25T03:05:45.573Z,5.63
2022-12-25T03:08:14.422Z,5.67
2022-12-25T03:11:01.885Z,5.59
2022-12-25T03:13:31.636Z,5.60
2022-12-25T03:16:17.815Z,5.56
2022-12-25T03:18:47.127Z,5.48
2022-12-25T03:21:33.386Z,5.60
2022-12-25T03:24:19.824Z,5.56
2022-12-25T03:26:56.685Z,5.43
2022-12-25T03:29:43.918Z,5.44
2022-12-25T03:32:26.795Z,5.49
2022-12-25T03:35:23.823Z,5.54
2022-12-25T03:38:19.142Z,5.69
2022-12-25T03:41:28.465Z,5.43
2022-12-25T03:44:14.990Z,5.40
2022-12-25T03:47:03.559Z,5.36
2022-12-25T03:49:51.230Z,5.54
2022-12-25T03:52:38.311Z,5.54
2022-12-25T03:55:25.976Z,5.30
2022-12-25T03:58:12.060Z,5.31
2022-12-25T04:00:58.747Z,5.25
2022-12-25T04:03:45.346Z,5.30
2022-12-25T04:06:31.809Z,5.26
2022-12-25T04:09:21.706Z,5.16
2022-12-25T04:12:23.780Z,5.23
2022-12-25T04:15:11.013Z,5.17
2022-12-25T04:17:58.300Z,5.22
2022-12-25T04:20:46.695Z,5.07
2022-12-25T04:23:32.837Z,5.27
2022-12-25T04:26:20.525Z,5.24
2022-12-25T04:29:06.968Z,5.29
2022-12-25T04:31:53.097Z,5.25
2022-12-25T04:34:39.418Z,5.21
2022-12-25T04:37:07.100Z,5.22
2022-12-25T04:39:35.805Z,5.19
2022-12-25T04:42:04.177Z,5.16
2022-12-25T04:44:31.681Z,5.25
2022-12-25T04:46:59.874Z,5.26
2022-12-25T04:49:27.389Z,5.19
2022-12-25T04:51:54.933Z,5.29
2022-12-25T04:54:22.360Z,5.12
2022-12-25T04:56:49.860Z,5.15
2022-12-25T04:59:17.434Z,5.21
2022-12-25T05:01:45.001Z,5.15
2022-12-25T05:04:14.654Z,5.18
2022-12-25T05:06:42.317Z,5.21
2022-12-25T05:09:10.877Z,5.28
2022-12-25T05:11:38.516Z,5.26
2022-12-25T05:14:06.985Z,5.16
2022-12-25T05:16:34.607Z,5.19
2022-12-25T05:19:02.512Z,5.07
2022-12-25T05:21:32.567Z,5.27
2022-12-25T05:24:01.602Z,5.20
2022-12-25T05:26:29.493Z,5.14
2022-12-25T05:28:57.162Z,5.21
2022-12-25T05:31:25.213Z,5.13
2022-12-25T05:33:52.786Z,5.23
2022-12-25T05:36:20.276Z,5.31
2022-12-25T05:38:48.054Z,5.39
2022-12-25T05:41:16.007Z,5.14
2022-12-25T05:43:44.109Z,5.09
2022-12-25T05:46:12.207Z,5.16
2022-12-25T05:48:43.294Z,5.13
2022-12-25T05:51:15.448Z,5.26
2022-12-25T05:53:43.416Z,4.93
2022-12-25T05:56:10.884Z,5.02
2022-12-25T05:58:39.209Z,5.05
2022-12-25T06:01:13.730Z,5.16
2022-12-25T06:03:41.598Z,5.09
2022-12-25T06:06:10.508Z,5.08
2022-12-25T06:08:38.163Z,5.08
2022-12-25T06:11:06.822Z,5.30
2022-12-25T06:13:34.909Z,5.18
2022-12-25T06:16:06.778Z,5.17
2022-12-25T06:18:37.485Z,5.14
2022-12-25T06:21:08.823Z,5.17
2022-12-25T06:23:37.105Z,5.19
2022-12-25T06:26:05.639Z,5.22
2022-12-25T06:28:33.464Z,5.11
2022-12-25T06:31:27.938Z,4.95
2022-12-25T06:33:57.729Z,5.17
2022-12-25T06:36:26.194Z,5.29
2022-12-25T06:38:54.437Z,5.23
2022-12-25T06:41:22.807Z,5.20
2022-12-25T06:43:54.523Z,5.26
2022-12-25T06:46:34.162Z,5.28
2022-12-25T06:49:02.070Z,5.35
2022-12-25T06:51:32.252Z,5.26
2022-12-25T06:54:04.258Z,5.33
2022-12-25T06:56:32.191Z,5.39
2022-12-25T06:59:00.794Z,5.26
2022-12-25T07:01:50.785Z,5.20
2022-12-25T07:04:21.618Z,5.29
2022-12-25T07:06:49.623Z,5.34
2022-12-25T07:09:17.576Z,5.49
2022-12-25T07:11:49.835Z,5.41
2022-12-25T07:14:28.096Z,5.19
2022-12-25T07:16:56.279Z,5.30
2022-12-25T07:19:24.336Z,5.27
2022-12-25T07:21:52.291Z,5.05
2022-12-25T07:24:20.704Z,5.03
2022-12-25T07:26:52.148Z,5.20
2022-12-25T07:29:19.970Z,5.46
2022-12-25T07:31:50.293Z,5.40
2022-12-25T07:34:20.941Z,5.21
2022-12-25T07:36:48.985Z,5.41
2022-12-25T07:39:19.249Z,5.50
2022-12-25T07:41:46.910Z,5.23
2022-12-25T07:44:18.446Z,5.29
2022-12-25T07:46:46.130Z,5.36
2022-12-25T07:49:13.870Z,5.52
2022-12-25T07:51:41.597Z,5.43
2022-12-25T07:54:09.054Z,5.37
2022-12-25T07:56:37.463Z,5.35
2022-12-25T07:59:04.913Z,5.33
2022-12-25T08:01:32.855Z,5.16
2022-12-25T08:04:01.597Z,5.20
2022-12-25T11:37:50.184Z,5.77
2022-12-25T11:40:17.571Z,5.96
2022-12-25T11:42:49.104Z,5.83
2022-12-25T11:45:18.742Z,5.77
2022-12-25T11:47:46.226Z,5.84
2022-12-25T11:50:13.764Z,5.75
2022-12-25T11:52:43.504Z,5.77
2022-12-25T11:55:20.458Z,5.83
2022-12-25T11:57:55.444Z,5.97
2022-12-25T12:00:22.966Z,5.79
2022-12-25T12:02:55.484Z,5.91
2022-12-25T12:05:22.956Z,5.88
2022-12-25T12:07:51.987Z,5.92
2022-12-25T12:10:19.861Z,5.86
2022-12-25T12:12:49.206Z,5.80
2022-12-25T12:15:22.533Z,5.58
2022-12-25T12:17:50.242Z,5.47
2022-12-25T12:20:24.061Z,5.74
2022-12-25T12:22:51.496Z,5.75
2022-12-25T12:25:18.858Z,5.63
2022-12-25T12:27:46.170Z,5.81
2022-12-25T12:30:27.099Z,5.79
2022-12-25T12:32:59.958Z,5.64
2022-12-25T12:35:31.587Z,5.63
2022-12-25T12:38:11.092Z,5.73
2022-12-25T12:40:38.511Z,5.79
2022-12-25T12:43:06.704Z,5.65
2022-12-25T12:45:35.277Z,5.63
2022-12-25T12:48:02.757Z,5.62
2022-12-25T12:50:31.724Z,5.74
2022-12-25T12:52:59.282Z,5.84
2022-12-25T12:55:36.221Z,5.76
2022-12-25T12:58:04.600Z,5.64
2022-12-25T13:00:52.610Z,5.70
2022-12-25T13:03:34.910Z,5.73
2022-12-25T13:06:11.881Z,5.74
2022-12-25T13:08:46.732Z,5.65
2022-12-25T13:11:24.487Z,5.73
2022-12-25T13:13:52.553Z,5.62
2022-12-25T13:16:23.586Z,5.53
2022-12-25T13:18:51.867Z,5.69
2022-12-25T13:21:21.099Z,5.49
2022-12-25T13:23:48.527Z,5.66
2022-12-25T13:26:17.187Z,5.53
2022-12-25T13:28:45.724Z,5.65
2022-12-25T13:31:12.996Z,5.54
2022-12-25T13:33:40.967Z,5.53
2022-12-25T13:36:11.571Z,5.58
2022-12-25T13:38:45.924Z,5.61
2022-12-25T13:41:36.689Z,5.68
2022-12-25T13:44:06.669Z,5.47
2022-12-25T13:46:34.109Z,5.47
2022-12-25T13:49:01.638Z,5.44
2022-12-25T13:51:29.280Z,5.54
2022-12-25T13:54:06.116Z,5.48
2022-12-25T13:56:33.739Z,5.31
2022-12-25T13:59:01.862Z,5.38
2022-12-25T14:01:29.864Z,5.46
2022-12-25T14:03:57.409Z,5.45
2022-12-25T14:06:26.011Z,5.33
2022-12-25T14:08:54.353Z,5.51
2022-12-25T14:11:22.493Z,5.23
2022-12-25T14:13:51.182Z,5.30
2022-12-25T14:16:18.807Z,5.23
2022-12-25T14:18:53.383Z,5.35
2022-12-25T14:21:33.487Z,5.27
2022-12-25T14:24:01.051Z,5.37
2022-12-25T14:26:29.697Z,5.42
2022-12-25T14:29:15.766Z,5.39
2022-12-25T14:31:45.177Z,5.51
2022-12-25T14:34:15.266Z,5.36
2022-12-25T14:36:42.557Z,5.34
2022-12-25T14:39:27.029Z,5.46
2022-12-25T14:41:54.463Z,5.36
2022-12-25T14:44:38.838Z,5.29
2022-12-25T14:47:13.164Z,5.60
2022-12-25T14:49:40.679Z,5.40
2022-12-25T14:52:21.929Z,5.35
2022-12-25T14:55:08.317Z,5.25
2022-12-25T14:57:40.234Z,5.16
2022-12-25T15:00:09.311Z,5.30
2022-12-25T15:02:41.224Z,5.33
2022-12-25T15:05:23.991Z,5.33
2022-12-25T15:08:01.729Z,5.20
2022-12-25T15:10:58.903Z,5.13
2022-12-25T15:13:20.749Z,5.09
2022-12-25T15:15:50.548Z,5.14
2022-12-25T15:18:18.202Z,5.07
2022-12-25T15:20:45.573Z,5.12
2022-12-25T15:23:20.282Z,5.25
2022-12-25T15:25:48.020Z,5.26
2022-12-25T15:28:15.602Z,5.18
2022-12-25T15:30:43.109Z,5.13
2022-12-25T15:33:13.008Z,5.14
2022-12-25T15:35:40.411Z,5.16
2022-12-25T15:38:07.748Z,5.08
2022-12-25T15:40:35.252Z,5.14
2022-12-25T15:43:11.550Z,5.02
2022-12-25T15:45:49.919Z,5.24
2022-12-25T15:48:17.239Z,5.01
2022-12-25T15:50:46.844Z,4.98
2022-12-25T15:53:14.321Z,5.06
2022-12-25T15:55:42.464Z,5.01
2022-12-25T15:58:12.223Z,5.12
2022-12-25T16:00:39.692Z,5.18
2022-12-25T16:03:07.613Z,4.99
2022-12-25T16:05:35.376Z,4.95
2022-12-25T16:08:02.742Z,4.99
2022-12-25T16:10:36.610Z,4.84
2022-12-25T16:13:06.047Z,4.84
2022-12-25T16:15:33.765Z,4.89
2022-12-25T16:18:01.246Z,5.12
2022-12-25T16:20:29.546Z,5.14
2022-12-25T16:22:56.859Z,5.01
2022-12-25T19:39:01.502Z,4.85
2022-12-25T19:41:29.072Z,5.07
2022-12-25T19:43:56.389Z,5.12
2022-12-25T19:46:24.894Z,5.13
2022-12-25T19:48:52.310Z,5.15
2022-12-25T19:51:21.340Z,5.08
2022-12-25T19:53:50.118Z,5.03
2022-12-25T19:56:17.647Z,5.13
2022-12-25T19:58:45.783Z,5.14
2022-12-25T20:01:14.311Z,4.96
2022-12-25T20:03:47.818Z,5.01
2022-12-25T20:06:20.739Z,5.25
2022-12-25T20:08:48.722Z,5.23
2022-12-25T20:11:16.803Z,5.20
2022-12-25T20:13:45.409Z,5.13
2022-12-25T20:16:13.140Z,5.12
2022-12-25T20:18:40.661Z,5.06
2022-12-25T20:21:09.763Z,4.99
2022-12-25T20:23:37.295Z,4.92
2022-12-25T20:26:05.558Z,5.08
2022-12-25T20:28:33.885Z,5.21
2022-12-25T20:31:05.272Z,5.19
2022-12-25T20:33:33.306Z,5.17
2022-12-25T20:36:01.958Z,5.16
2022-12-25T20:38:30.312Z,5.00
2022-12-25T20:41:25.683Z,4.95
2022-12-25T20:43:46.981Z,5.01
2022-12-25T20:46:14.476Z,5.07
2022-12-25T20:48:41.806Z,5.11
2022-12-25T20:51:10.055Z,5.11
2022-12-25T20:53:40.646Z,4.98
2022-12-25T20:56:11.659Z,4.99
2022-12-25T20:58:39.128Z,4.96
2022-12-25T21:01:07.064Z,5.21
2022-12-25T21:03:34.936Z,4.99
2022-12-25T21:06:02.512Z,4.90
2022-12-25T21:08:29.998Z,4.95
2022-12-25T21:11:00.870Z,4.95
2022-12-25T21:13:29.572Z,4.98
2022-12-25T21:15:56.899Z,4.91
2022-12-25T21:18:24.992Z,4.96
2022-12-25T21:20:56.186Z,4.86
2022-12-25T21:23:23.592Z,4.79
2022-12-25T21:25:51.157Z,4.98
2022-12-25T21:28:18.590Z,4.93
2022-12-25T21:30:46.244Z,4.98
2022-12-25T21:33:32.507Z,4.96
2022-12-25T21:36:09.653Z,4.95
2022-12-25T21:38:37.570Z,4.96
2022-12-25T21:41:05.610Z,5.14
2022-12-25T21:43:35.726Z,5.23
2022-12-25T21:46:04.400Z,5.28
2022-12-25T21:48:32.491Z,5.27
2022-12-25T21:51:30.139Z,5.05
2022-12-25T21:53:58.490Z,4.87
2022-12-25T21:56:27.620Z,5.05
2022-12-25T21:58:54.964Z,4.91
2022-12-25T22:01:22.356Z,4.83
2022-12-25T22:03:49.910Z,4.74
2022-12-25T22:06:36.235Z,4.87
2022-12-25T22:09:07.470Z,5.02
2022-12-25T22:11:58.661Z,5.05
2022-12-25T22:14:52.288Z,5.08
2022-12-25T22:17:40.480Z,5.05
2022-12-25T22:20:09.038Z,5.08
2022-12-25T22:22:40.478Z,5.16
2022-12-25T22:25:09.287Z,5.25
2022-12-25T22:27:38.218Z,5.23
2022-12-25T22:30:07.293Z,5.12
2022-12-25T22:32:35.059Z,5.21
2022-12-25T22:35:02.506Z,5.01
2022-12-25T22:37:30.192Z,5.10
2022-12-25T22:39:57.565Z,5.05
2022-12-25T22:42:26.221Z,5.09
2022-12-25T22:44:53.838Z,5.01
2022-12-25T22:47:21.318Z,5.15
2022-12-25T22:49:49.105Z,5.16
2022-12-25T22:52:16.544Z,5.11
2022-12-25T22:54:48.363Z,5.26
2022-12-25T22:57:15.967Z,5.32
2022-12-25T22:59:43.697Z,5.17
2022-12-25T23:02:13.127Z,5.22
2022-12-25T23:04:40.800Z,5.27
2022-12-25T23:07:08.977Z,5.22
2022-12-25T23:09:37.483Z,5.32
2022-12-25T23:12:05.182Z,5.26
2022-12-25T23:14:43.106Z,5.18
2022-12-25T23:17:30.240Z,5.26
2022-12-25T23:20:17.497Z,5.18
2022-12-25T23:23:04.141Z,5.09
2022-12-25T23:25:50.517Z,5.21
2022-12-25T23:28:37.935Z,4.97
2022-12-25T23:31:05.651Z,4.98
2022-12-25T23:33:33.482Z,4.97
2022-12-25T23:36:01.428Z,4.86
2022-12-25T23:38:33.151Z,5.07
2022-12-25T23:41:03.857Z,5.20
2022-12-25T23:43:32.501Z,5.10
2022-12-25T23:46:03.036Z,5.19
2022-12-25T23:48:30.599Z,5.11
2022-12-25T23:51:01.895Z,4.94
2022-12-25T23:53:29.417Z,4.80
2022-12-25T23:55:57.740Z,5.01
2022-12-25T23:58:25.689Z,5.04
